createdAt,value
2022-08-19T00:01:53.374Z,33.85
2022-08-19T00:04:22.207Z,33.60
2022-08-19T00:06:49.423Z,33.58
2022-08-19T00:09:18.716Z,33.20
2022-08-19T00:11:47.016Z,33.48
2022-08-19T00:14:16.573Z,33.08
2022-08-19T00:16:45.490Z,32.80
2022-08-19T00:19:12.941Z,32.90
2022-08-19T00:21:40.636Z,33.32
2022-08-19T00:24:09.146Z,33.23
2022-08-19T00:26:38.025Z,32.90
2022-08-19T00:29:05.733Z,33.29
2022-08-19T00:31:33.031Z,33.12
2022-08-19T00:34:00.757Z,33.10
2022-08-19T00:36:29.592Z,33.48
2022-08-19T00:38:56.794Z,33.62
2022-08-19T00:41:24.952Z,33.30
2022-08-19T00:44:09.047Z,33.40
2022-08-19T00:46:37.690Z,33.47
2022-08-19T00:49:08.047Z,33.16
2022-08-19T00:51:35.710Z,33.48
2022-08-19T00:54:03.469Z,33.07
2022-08-19T00:56:31.645Z,33.32
2022-08-19T00:59:00.588Z,33.36
2022-08-19T01:01:28.319Z,33.47
2022-08-19T01:03:57.499Z,33.47
2022-08-19T01:06:26.428Z,33.15
2022-08-19T01:08:54.964Z,33.41
2022-08-19T01:11:24.443Z,32.96
2022-08-19T01:13:51.775Z,33.43
2022-08-19T01:16:19.952Z,33.02
2022-08-19T01:18:47.168Z,32.87
2022-08-19T01:21:41.920Z,33.06
2022-08-19T01:24:09.368Z,33.19
2022-08-19T01:26:42.029Z,33.32
2022-08-19T01:29:09.732Z,32.90
2022-08-19T01:31:37.377Z,32.21
2022-08-19T01:34:04.655Z,33.26
2022-08-19T01:36:32.032Z,33.07
2022-08-19T01:38:59.291Z,31.66
2022-08-19T01:41:26.483Z,31.44
2022-08-19T01:44:10.410Z,31.96
2022-08-19T01:46:44.590Z,31.96
2022-08-19T01:49:12.056Z,32.01
2022-08-19T01:51:40.743Z,31.83
2022-08-19T01:54:08.675Z,32.16
2022-08-19T01:56:36.269Z,31.62
2022-08-19T01:59:04.804Z,31.21
2022-08-19T02:01:33.540Z,31.00
2022-08-19T02:04:01.768Z,30.61
2022-08-19T02:06:29.438Z,30.83
2022-08-19T02:08:57.585Z,30.68
2022-08-19T02:11:29.357Z,30.84
2022-08-19T02:13:56.610Z,30.19
2022-08-19T02:16:23.974Z,31.41
2022-08-19T02:18:51.423Z,30.44
2022-08-19T02:21:19.275Z,31.29
2022-08-19T02:23:46.459Z,31.02
2022-08-19T02:26:13.871Z,30.56
2022-08-19T02:28:41.784Z,30.28
2022-08-19T02:31:10.776Z,30.42
2022-08-19T02:33:38.251Z,30.90
2022-08-19T02:36:06.413Z,30.87
2022-08-19T02:38:33.638Z,31.48
2022-08-19T02:41:02.079Z,30.74
2022-08-19T02:43:33.647Z,31.15
2022-08-19T02:46:02.466Z,31.69
2022-08-19T02:48:29.641Z,31.55
2022-08-19T02:50:56.856Z,30.90
2022-08-19T02:53:25.081Z,31.12
2022-08-19T02:55:52.274Z,32.05
2022-08-19T02:58:19.533Z,31.36
2022-08-19T03:00:48.815Z,31.19
2022-08-19T03:03:16.382Z,31.38
2022-08-19T03:05:46.831Z,32.02
2022-08-19T03:08:25.178Z,31.10
2022-08-19T03:10:54.002Z,31.44
2022-08-19T03:13:21.350Z,31.87
2022-08-19T03:15:49.281Z,32.38
2022-08-19T03:18:18.132Z,32.74
2022-08-19T03:20:46.616Z,32.29
2022-08-19T03:23:14.204Z,32.55
2022-08-19T03:25:44.057Z,32.36
2022-08-19T03:28:12.865Z,32.18
2022-08-19T03:30:41.848Z,31.39
2022-08-19T03:33:11.154Z,32.25
2022-08-19T03:35:46.135Z,32.01
2022-08-19T03:38:13.330Z,30.85
2022-08-19T03:40:40.482Z,31.04
2022-08-19T03:43:07.932Z,31.19
2022-08-19T03:45:35.140Z,29.80
2022-08-19T03:48:02.364Z,29.30
2022-08-19T03:50:29.813Z,30.03
2022-08-19T03:52:57.048Z,30.30
2022-08-19T03:55:24.617Z,29.98
2022-08-19T03:57:55.195Z,29.94
2022-08-19T04:00:25.876Z,29.37
2022-08-19T04:02:58.490Z,30.36
2022-08-19T04:05:29.644Z,31.00
2022-08-19T04:07:59.879Z,30.64
2022-08-19T04:10:28.684Z,30.74
2022-08-19T04:12:55.862Z,29.90
2022-08-19T04:15:23.317Z,30.81
2022-08-19T04:17:50.473Z,30.16
2022-08-19T04:20:18.142Z,31.08
2022-08-19T04:22:45.573Z,29.80
2022-08-19T04:25:12.772Z,29.42
2022-08-19T04:27:39.974Z,29.64
2022-08-19T04:30:07.614Z,29.70
2022-08-19T04:32:36.433Z,29.31
2022-08-19T04:35:17.474Z,29.20
2022-08-19T04:37:46.124Z,29.19
2022-08-19T04:40:31.810Z,29.51
2022-08-19T04:42:59.371Z,28.97
2022-08-19T04:45:26.564Z,29.46
2022-08-19T04:48:19.693Z,28.91
2022-08-19T04:50:44.653Z,29.11
2022-08-19T04:53:11.859Z,29.62
2022-08-19T04:55:39.950Z,30.49
2022-08-19T04:58:07.682Z,30.36
2022-08-19T05:00:35.243Z,29.26
2022-08-19T05:03:05.343Z,29.90
2022-08-19T05:05:45.003Z,29.15
2022-08-19T05:08:15.198Z,29.71
2022-08-19T05:10:43.177Z,29.65
2022-08-19T05:13:11.859Z,29.87
2022-08-19T05:15:39.079Z,30.46
2022-08-19T05:18:25.073Z,30.93
2022-08-19T05:21:30.606Z,29.95
2022-08-19T05:23:58.408Z,30.20
2022-08-19T05:26:27.009Z,30.94
2022-08-19T05:28:54.655Z,30.75
2022-08-19T05:31:22.492Z,30.20
2022-08-19T05:33:51.400Z,30.32
2022-08-19T05:36:20.840Z,30.78
2022-08-19T05:38:48.747Z,30.73
2022-08-19T05:41:16.446Z,30.83
2022-08-19T05:43:43.623Z,31.24
2022-08-19T05:46:16.314Z,30.74
2022-08-19T05:48:43.497Z,30.73
2022-08-19T05:51:11.568Z,30.83
2022-08-19T05:53:38.751Z,30.75
2022-08-19T05:56:06.680Z,30.37
2022-08-19T05:58:34.649Z,30.47
2022-08-19T06:01:06.935Z,31.84
2022-08-19T06:03:34.427Z,32.41
2022-08-19T06:06:01.710Z,31.94
2022-08-19T06:08:33.551Z,32.42
2022-08-19T06:11:17.581Z,32.57
2022-08-19T06:13:48.144Z,32.70
2022-08-19T06:16:21.774Z,31.40
2022-08-19T06:18:55.542Z,32.28
2022-08-19T06:21:23.997Z,32.02
2022-08-19T06:23:51.945Z,32.35
2022-08-19T06:26:20.134Z,31.53
2022-08-19T06:28:48.071Z,31.73
2022-08-19T06:31:17.124Z,32.60
2022-08-19T06:33:45.938Z,31.92
2022-08-19T06:36:19.539Z,31.69
2022-08-19T06:38:46.723Z,31.79
2022-08-19T06:41:14.156Z,31.59
2022-08-19T06:43:43.562Z,31.08
2022-08-19T06:46:12.515Z,30.77
2022-08-19T06:48:45.749Z,31.33
2022-08-19T06:51:16.657Z,31.38
2022-08-19T06:56:24.169Z,32.25
2022-08-19T06:58:53.479Z,32.43
2022-08-19T07:01:20.874Z,32.71
2022-08-19T07:03:48.050Z,32.73
2022-08-19T07:06:43.109Z,32.62
2022-08-19T07:09:06.334Z,33.23
2022-08-19T07:11:34.740Z,33.28
2022-08-19T07:14:02.228Z,33.42
2022-08-19T07:16:30.653Z,33.28
2022-08-19T07:18:58.830Z,32.91
2022-08-19T07:21:29.493Z,33.78
2022-08-19T07:23:57.621Z,32.84
2022-08-19T07:26:27.970Z,33.33
2022-08-19T07:28:55.550Z,33.97
2022-08-19T07:31:23.961Z,34.21
2022-08-19T07:33:53.337Z,33.94
2022-08-19T07:36:23.979Z,34.82
2022-08-19T07:38:55.473Z,35.11
2022-08-19T07:41:23.999Z,35.63
2022-08-19T07:43:51.505Z,36.52
2022-08-19T07:46:21.367Z,35.49
2022-08-19T07:48:49.222Z,35.78
2022-08-19T07:51:35.969Z,36.13
2022-08-19T07:54:04.766Z,36.15
2022-08-19T07:56:31.966Z,36.77
2022-08-19T07:58:59.136Z,36.74
2022-08-19T08:01:27.380Z,36.42
2022-08-19T08:04:14.057Z,37.20
2022-08-19T08:06:59.982Z,36.74
2022-08-19T08:09:28.880Z,35.77
2022-08-19T08:12:01.915Z,35.14
2022-08-19T08:14:43.976Z,36.36
2022-08-19T08:17:11.712Z,36.35
2022-08-19T08:19:42.058Z,35.43
2022-08-19T08:22:09.382Z,36.40
2022-08-19T08:24:37.006Z,34.77
2022-08-19T08:27:11.357Z,35.27
2022-08-19T08:29:42.011Z,35.57
2022-08-19T08:32:14.823Z,35.71
2022-08-19T08:34:42.818Z,35.88
2022-08-19T08:37:10.227Z,35.22
2022-08-19T08:39:37.444Z,34.56
2022-08-19T08:42:43.350Z,34.85
2022-08-19T08:45:16.909Z,35.49
2022-08-19T08:47:44.771Z,34.83
2022-08-19T08:50:15.780Z,35.40
2022-08-19T08:52:44.529Z,35.95
2022-08-19T08:55:18.137Z,35.83
2022-08-19T08:57:55.442Z,36.42
2022-08-19T09:00:27.937Z,35.40
2022-08-19T09:02:55.458Z,36.04
2022-08-19T09:05:26.079Z,36.25
2022-08-19T09:08:07.710Z,35.98
2022-08-19T09:10:44.395Z,37.16
2022-08-19T09:13:12.152Z,36.57
2022-08-19T09:15:40.622Z,36.41
2022-08-19T09:18:08.141Z,37.04
2022-08-19T09:20:45.798Z,35.90
2022-08-19T09:23:13.170Z,35.71
2022-08-19T09:25:41.177Z,35.82
2022-08-19T09:28:20.611Z,35.36
2022-08-19T09:30:49.450Z,35.58
2022-08-19T09:33:17.177Z,35.60
2022-08-19T09:35:50.105Z,35.86
2022-08-19T09:38:21.715Z,35.94
2022-08-19T09:40:50.141Z,35.44
2022-08-19T09:43:34.000Z,36.09
2022-08-19T09:46:10.395Z,35.68
2022-08-19T09:48:37.695Z,36.41
2022-08-19T09:51:07.644Z,36.88
2022-08-19T09:53:39.568Z,37.35
2022-08-19T09:56:08.439Z,36.76
2022-08-19T09:58:36.873Z,37.57
2022-08-19T10:01:05.676Z,38.01
2022-08-19T10:03:33.554Z,37.54
2022-08-19T10:06:01.346Z,37.15
2022-08-19T10:08:29.808Z,37.42
2022-08-19T10:10:59.124Z,37.81
2022-08-19T10:13:27.484Z,37.80
2022-08-19T10:15:56.132Z,37.89
2022-08-19T10:18:24.327Z,37.32
2022-08-19T10:20:53.496Z,37.32
2022-08-19T10:23:21.294Z,37.74
2022-08-19T10:25:49.140Z,38.31
2022-08-19T10:28:25.036Z,37.58
2022-08-19T10:30:52.637Z,38.29
2022-08-19T10:33:39.398Z,37.96
2022-08-19T10:36:08.985Z,37.80
2022-08-19T10:38:36.545Z,38.04
2022-08-19T10:41:14.343Z,38.47
2022-08-19T10:43:42.103Z,38.61
2022-08-19T10:46:14.039Z,38.67
2022-08-19T10:48:44.003Z,38.36
2022-08-19T10:51:34.414Z,38.36
2022-08-19T10:54:02.112Z,38.76
2022-08-19T10:56:48.662Z,38.81
2022-08-19T10:59:16.546Z,39.02
2022-08-19T11:01:44.407Z,38.32
2022-08-19T11:04:12.226Z,39.38
2022-08-19T11:06:39.931Z,38.52
2022-08-19T11:09:07.484Z,39.16
2022-08-19T11:11:41.148Z,38.72
2022-08-19T11:14:12.864Z,38.99
2022-08-19T11:16:40.644Z,39.55
2022-08-19T11:19:09.054Z,39.70
2022-08-19T11:21:37.463Z,40.02
2022-08-19T11:24:06.927Z,39.85
2022-08-19T11:26:34.309Z,40.46
2022-08-19T11:29:02.067Z,39.48
2022-08-19T11:31:31.704Z,40.19
2022-08-19T11:34:00.743Z,40.28
2022-08-19T11:36:28.370Z,39.43
2022-08-19T11:38:55.670Z,40.31
2022-08-19T11:41:24.369Z,40.04
2022-08-19T11:43:53.815Z,40.43
2022-08-19T11:46:21.356Z,40.55
2022-08-19T11:48:49.539Z,40.74
2022-08-19T11:51:19.414Z,39.65
2022-08-19T11:53:46.568Z,40.38
2022-08-19T11:56:13.760Z,39.91
2022-08-19T11:58:43.044Z,39.35
2022-08-19T12:01:12.099Z,39.83
2022-08-19T12:03:39.634Z,40.13
2022-08-19T12:06:08.002Z,40.52
2022-08-19T12:08:35.388Z,39.57
2022-08-19T12:11:02.959Z,39.91
2022-08-19T12:13:32.815Z,40.21
2022-08-19T12:16:00.455Z,39.42
2022-08-19T12:18:27.911Z,40.47
2022-08-19T12:20:58.340Z,40.87
2022-08-19T12:23:25.823Z,41.02
2022-08-19T12:25:53.372Z,41.21
2022-08-19T12:28:21.921Z,41.60
2022-08-19T12:30:49.678Z,40.57
2022-08-19T12:33:17.138Z,41.05
2022-08-19T12:35:45.868Z,39.71
2022-08-19T12:38:13.660Z,40.34
2022-08-19T12:40:41.239Z,39.07
2022-08-19T12:43:08.803Z,39.31
2022-08-19T12:45:37.105Z,39.53
2022-08-19T12:48:33.599Z,39.73
2022-08-19T12:50:52.904Z,40.09
2022-08-19T12:53:20.369Z,39.96
2022-08-19T12:55:47.541Z,39.78
2022-08-19T12:58:14.731Z,40.46
2022-08-19T13:00:45.010Z,39.76
2022-08-19T13:03:12.244Z,39.32
2022-08-19T13:05:39.470Z,39.57
2022-08-19T13:08:06.919Z,40.68
2022-08-19T13:10:37.817Z,40.73
2022-08-19T13:13:07.133Z,41.04
2022-08-19T13:15:35.836Z,40.95
2022-08-19T13:18:03.123Z,40.80
2022-08-19T13:20:30.360Z,41.16
2022-08-19T13:22:58.338Z,40.35
2022-08-19T13:25:26.428Z,39.87
2022-08-19T13:27:53.767Z,40.07
2022-08-19T13:30:40.521Z,39.82
2022-08-19T13:33:16.918Z,39.74
2022-08-19T13:35:58.015Z,39.97
2022-08-19T13:38:25.364Z,40.05
2022-08-19T13:40:53.501Z,38.39
2022-08-19T13:43:23.782Z,37.92
2022-08-19T13:45:56.956Z,38.81
2022-08-19T13:48:27.420Z,38.33
2022-08-19T13:50:55.321Z,38.26
2022-08-19T13:53:22.597Z,37.82
2022-08-19T13:55:51.497Z,37.57
2022-08-19T13:58:18.682Z,36.98
2022-08-19T14:00:46.356Z,36.92
2022-08-19T14:03:14.298Z,37.44
2022-08-19T14:05:41.504Z,36.60
2022-08-19T14:08:08.679Z,37.12
2022-08-19T14:10:36.141Z,37.65
2022-08-19T14:13:03.620Z,36.59
2022-08-19T14:15:30.897Z,36.30
2022-08-19T14:17:58.394Z,36.79
2022-08-19T14:20:25.895Z,36.50
2022-08-19T14:22:53.943Z,36.72
2022-08-19T14:25:23.355Z,36.16
2022-08-19T14:27:50.802Z,36.56
2022-08-19T14:30:19.322Z,36.16
2022-08-19T14:32:46.798Z,36.10
2022-08-19T14:35:15.247Z,35.92
2022-08-19T14:37:45.779Z,36.09
2022-08-19T14:40:14.814Z,36.62
2022-08-19T14:42:42.893Z,36.44
2022-08-19T14:45:10.440Z,35.65
2022-08-19T14:47:46.898Z,35.63
2022-08-19T14:50:18.163Z,35.71
2022-08-19T14:52:46.759Z,35.64
2022-08-19T14:55:13.932Z,34.92
2022-08-19T14:57:44.164Z,35.76
2022-08-19T15:00:14.690Z,36.68
2022-08-19T15:02:42.775Z,35.61
2022-08-19T15:05:10.038Z,35.04
2022-08-19T15:07:38.181Z,35.43
2022-08-19T15:10:07.832Z,36.00
2022-08-19T15:12:35.309Z,35.13
2022-08-19T15:15:02.873Z,35.70
2022-08-19T15:17:43.484Z,35.87
2022-08-19T15:20:14.515Z,35.67
2022-08-19T15:22:43.158Z,35.75
2022-08-19T15:25:11.741Z,35.60
2022-08-19T15:27:39.999Z,35.34
2022-08-19T15:30:10.292Z,36.11
2022-08-19T15:32:37.805Z,35.90
2022-08-19T15:35:06.311Z,36.07
2022-08-19T15:37:34.394Z,36.51
2022-08-19T15:40:05.645Z,36.30
2022-08-19T15:42:33.150Z,36.27
2022-08-19T15:45:01.345Z,35.97
2022-08-19T15:47:34.624Z,36.24
2022-08-19T15:50:10.507Z,36.50
2022-08-19T15:52:49.640Z,36.72
2022-08-19T15:55:27.367Z,36.61
2022-08-19T15:58:29.028Z,36.69
2022-08-19T16:01:16.663Z,36.35
2022-08-19T16:04:13.749Z,36.61
2022-08-19T16:06:44.362Z,35.81
2022-08-19T16:09:13.091Z,36.85
2022-08-19T16:11:45.608Z,36.86
2022-08-19T16:14:14.321Z,36.54
2022-08-19T16:16:41.487Z,36.33
2022-08-19T16:19:12.150Z,36.19
2022-08-19T16:21:41.424Z,35.98
2022-08-19T16:24:10.570Z,36.37
2022-08-19T16:26:37.754Z,36.58
2022-08-19T16:29:08.984Z,36.71
2022-08-19T16:31:42.466Z,36.21
2022-08-19T16:34:10.002Z,36.29
2022-08-19T16:36:44.586Z,36.22
2022-08-19T16:39:16.659Z,35.91
2022-08-19T16:41:44.844Z,35.21
2022-08-19T16:44:15.576Z,35.12
2022-08-19T16:46:42.726Z,34.93
2022-08-19T16:49:10.618Z,34.36
2022-08-19T16:51:38.592Z,34.05
2022-08-19T16:54:06.631Z,34.52
2022-08-19T16:56:34.136Z,33.84
2022-08-19T16:59:01.739Z,33.82
2022-08-19T17:01:29.163Z,33.86
2022-08-19T17:03:57.371Z,33.41
2022-08-19T17:06:26.987Z,33.56
2022-08-19T17:08:55.525Z,33.57
2022-08-19T17:11:23.152Z,33.33
2022-08-19T17:13:52.789Z,33.28
2022-08-19T17:16:22.043Z,33.08
2022-08-19T17:18:52.614Z,32.79
2022-08-19T17:21:27.449Z,31.38
2022-08-19T17:23:59.951Z,30.57
2022-08-19T17:26:28.060Z,31.39
2022-08-19T17:28:56.645Z,31.50
2022-08-19T17:31:24.728Z,31.56
2022-08-19T17:33:52.618Z,30.95
2022-08-19T17:36:26.480Z,30.60
2022-08-19T17:38:55.349Z,30.09
2022-08-19T17:41:24.479Z,29.91
2022-08-19T17:43:52.218Z,29.97
2022-08-19T17:46:20.412Z,30.68
2022-08-19T17:48:55.172Z,30.75
2022-08-19T17:51:22.671Z,31.55
2022-08-19T17:53:52.497Z,32.22
2022-08-19T17:56:20.093Z,31.67
2022-08-19T17:58:59.654Z,31.13
2022-08-19T18:01:30.753Z,32.40
2022-08-19T18:04:17.561Z,31.76
2022-08-19T18:06:50.283Z,31.30
2022-08-19T18:09:23.660Z,30.72
2022-08-19T18:11:53.773Z,30.57
2022-08-19T18:14:32.083Z,30.91
2022-08-19T18:17:02.266Z,31.46
2022-08-19T18:19:40.559Z,31.50
2022-08-19T18:22:12.909Z,31.70
2022-08-19T18:24:41.543Z,31.45
2022-08-19T18:27:08.918Z,31.90
2022-08-19T18:29:36.998Z,31.80
2022-08-19T18:32:04.551Z,30.46
2022-08-19T18:34:31.711Z,29.44
2022-08-19T18:36:58.872Z,29.70
2022-08-19T18:39:45.267Z,29.99
2022-08-19T18:42:34.585Z,29.42
2022-08-19T18:45:21.051Z,29.95
2022-08-19T18:48:06.805Z,30.31
2022-08-19T18:50:53.210Z,30.26
2022-08-19T18:53:20.421Z,30.42
2022-08-19T18:55:49.561Z,30.22
2022-08-19T18:58:17.020Z,30.46
2022-08-19T19:00:44.352Z,30.54
2022-08-19T19:03:11.735Z,31.40
2022-08-19T19:05:40.009Z,31.40
2022-08-19T19:08:08.015Z,29.89
2022-08-19T19:10:36.275Z,30.36
2022-08-19T19:13:03.849Z,31.06
2022-08-19T19:15:31.044Z,30.60
2022-08-19T19:18:00.639Z,28.97
2022-08-19T19:20:36.284Z,29.79
2022-08-19T19:23:04.348Z,29.04
2022-08-19T19:25:50.764Z,29.42
2022-08-19T19:28:25.709Z,27.78
2022-08-19T19:30:54.299Z,29.60
2022-08-19T19:33:21.838Z,29.74
2022-08-19T19:35:49.453Z,30.39
2022-08-19T19:38:16.884Z,30.34
2022-08-19T19:40:44.623Z,30.20
2022-08-19T19:43:11.848Z,30.34
2022-08-19T19:45:39.334Z,29.41
2022-08-19T19:48:06.564Z,29.54
2022-08-19T19:50:33.919Z,29.35
2022-08-19T19:53:01.449Z,29.24
2022-08-19T19:55:29.210Z,28.77
2022-08-19T19:57:57.889Z,29.22
2022-08-19T20:00:25.725Z,28.92
2022-08-19T20:02:55.928Z,29.45
2022-08-19T20:05:23.657Z,28.64
2022-08-19T20:08:10.203Z,27.06
2022-08-19T20:10:37.886Z,27.13
2022-08-19T20:13:08.182Z,28.21
2022-08-19T20:15:39.116Z,27.45
2022-08-19T20:18:09.641Z,27.17
2022-08-19T20:20:36.922Z,27.16
2022-08-19T20:23:04.135Z,26.99
2022-08-19T20:25:32.246Z,27.38
2022-08-19T20:28:01.251Z,27.49
2022-08-19T20:30:28.602Z,27.04
2022-08-19T20:32:58.936Z,27.12
2022-08-19T20:35:26.775Z,27.44
2022-08-19T20:37:58.066Z,27.84
2022-08-19T20:40:26.832Z,27.75
2022-08-19T20:42:54.421Z,28.06
2022-08-19T20:45:32.349Z,28.51
2022-08-19T20:48:05.035Z,28.71
2022-08-19T20:50:32.860Z,29.14
2022-08-19T20:53:00.865Z,29.48
2022-08-19T20:55:30.349Z,29.43
2022-08-19T20:57:58.682Z,29.56
2022-08-19T21:00:25.921Z,29.80
2022-08-19T21:02:53.385Z,29.39
2022-08-19T21:05:20.572Z,29.68
2022-08-19T21:07:47.811Z,30.19
2022-08-19T21:10:15.454Z,30.15
2022-08-19T21:12:44.399Z,30.63
2022-08-19T21:15:12.078Z,30.43
2022-08-19T21:17:40.051Z,30.74
2022-08-19T21:20:09.572Z,31.29
2022-08-19T21:22:36.754Z,31.30
2022-08-19T21:25:04.586Z,30.09
2022-08-19T21:27:31.795Z,29.63
2022-08-19T21:29:59.007Z,28.77
2022-08-19T21:32:26.455Z,28.02
2022-08-19T21:34:53.628Z,27.94
2022-08-19T21:37:25.153Z,28.88
2022-08-19T21:39:54.145Z,28.70
2022-08-19T21:42:21.907Z,28.15
2022-08-19T21:44:49.091Z,28.89
2022-08-19T21:47:16.511Z,26.78
2022-08-19T21:49:43.734Z,27.77
2022-08-19T21:52:10.932Z,28.57
2022-08-19T21:54:38.859Z,28.77
2022-08-19T21:57:07.017Z,29.27
2022-08-19T21:59:43.727Z,29.71
2022-08-19T22:02:22.062Z,30.00
2022-08-19T22:04:50.892Z,30.37
2022-08-19T22:07:18.938Z,30.60
2022-08-19T22:09:46.361Z,30.52
2022-08-19T22:12:23.506Z,30.61
2022-08-19T22:14:51.757Z,29.92
2022-08-19T22:17:19.692Z,29.00
2022-08-19T22:19:46.908Z,29.93
2022-08-19T22:22:19.371Z,30.22
2022-08-19T22:24:46.958Z,30.71
2022-08-19T22:27:14.148Z,30.64
2022-08-19T22:29:41.332Z,30.39
2022-08-19T22:32:27.052Z,30.66
2022-08-19T22:34:59.245Z,30.46
2022-08-19T22:37:27.265Z,30.93
2022-08-19T22:39:54.624Z,30.92
2022-08-19T22:42:24.256Z,30.86
2022-08-19T22:44:51.830Z,30.64
2022-08-19T22:47:20.629Z,30.97
2022-08-19T22:49:47.834Z,31.01
2022-08-19T22:52:19.331Z,31.05
2022-08-19T22:54:47.516Z,30.67
2022-08-19T22:57:15.428Z,30.58
2022-08-19T22:59:44.042Z,30.78
2022-08-19T23:02:11.909Z,30.97
2022-08-19T23:04:39.395Z,30.96
2022-08-19T23:07:07.634Z,30.63
2022-08-19T23:09:34.838Z,30.59
2022-08-19T23:12:04.357Z,30.35
2022-08-19T23:14:31.636Z,30.34
2022-08-19T23:16:59.379Z,29.42
2022-08-19T23:19:26.874Z,30.20
2022-08-19T23:21:54.286Z,30.25
2022-08-19T23:24:21.637Z,30.40
2022-08-19T23:27:07.977Z,30.46
2022-08-19T23:29:56.724Z,30.75
2022-08-19T23:32:25.525Z,30.26
2022-08-19T23:34:55.326Z,30.52
2022-08-19T23:37:26.505Z,29.07
2022-08-19T23:39:53.990Z,30.26
2022-08-19T23:42:21.168Z,30.51
2022-08-19T23:44:53.031Z,30.61
2022-08-19T23:47:21.516Z,30.67
2022-08-19T23:49:48.786Z,30.73
2022-08-19T23:52:16.005Z,30.63
2022-08-19T23:54:44.043Z,30.66
2022-08-19T23:57:13.212Z,30.62
2022-08-19T23:59:42.596Z,30.88
